Time;durP1;ratioP1;P1;durP2;ratioP2;P2;SDS_P1;SDS_P2;PMS_P1;PMS_P2;Temp;Humidity;BMP_temperature;BMP_pressure;BME280_temperature;BME280_humidity;BME280_pressure;Samples;Min_cycle;Max_cycle;Signal;HPM_P1;HPM_P2
2021/03/23 00:00:33;;;;;;;23.77;11.07;;;;;;;3.85;89.54;102625.84;5086272;28;19907;-78
2021/03/23 00:03:11;;;;;;;18.77;8.60;;;;;;;3.98;89.51;102623.53;5085036;28;20027;-78
2021/03/23 00:05:37;;;;;;;16.73;8.00;;;;;;;3.91;89.46;102628.91;5077286;28;20073;-78
2021/03/23 00:08:20;;;;;;;20.17;8.03;;;;;;;3.89;89.54;102631.28;5099020;28;20044;-77
2021/03/23 00:10:45;;;;;;;15.80;7.57;;;;;;;3.92;89.72;102626.47;5075608;28;20493;-77
2021/03/23 00:13:10;;;;;;;22.57;7.60;;;;;;;3.91;89.34;102617.06;5080515;28;20035;-77
2021/03/23 00:15:35;;;;;;;15.57;7.57;;;;;;;3.90;89.47;102622.94;5096411;28;20084;-77
2021/03/23 00:18:01;;;;;;;15.90;7.63;;;;;;;3.85;89.19;102620.75;5091201;28;20026;-77
2021/03/23 00:20:26;;;;;;;21.13;7.13;;;;;;;3.86;89.09;102620.88;5105036;28;20285;-77
2021/03/23 00:22:51;;;;;;;23.30;7.53;;;;;;;3.84;89.43;102624.97;5112108;28;20341;-77
2021/03/23 00:25:17;;;;;;;18.57;6.93;;;;;;;3.85;89.56;102631.81;5097428;28;20107;-77
2021/03/23 00:27:42;;;;;;;18.30;7.40;;;;;;;3.87;89.33;102632.81;5075766;28;20381;-78
2021/03/23 00:30:11;;;;;;;21.75;7.80;;;;;;;3.98;89.20;102623.53;5105314;28;20031;-78
2021/03/23 00:32:36;;;;;;;23.47;8.63;;;;;;;4.06;88.74;102622.47;5113604;28;20026;-78
2021/03/23 00:35:04;;;;;;;21.30;8.23;;;;;;;4.11;88.52;102617.72;5094228;28;20020;-77
2021/03/23 00:37:29;;;;;;;21.87;8.73;;;;;;;4.12;88.48;102617.84;5075545;28;20020;-77
2021/03/23 00:39:56;;;;;;;20.27;7.63;;;;;;;4.13;88.61;102621.28;5093349;28;20523;-77
2021/03/23 00:42:22;;;;;;;21.47;8.77;;;;;;;4.13;88.51;102622.16;5093019;28;20374;-77
2021/03/23 00:44:48;;;;;;;23.43;9.43;;;;;;;4.19;88.51;102625.19;5093399;28;20114;-77
2021/03/23 00:47:14;;;;;;;;;;;;;;;4.23;88.85;102621.25;5086787;28;20273;-77
2021/03/23 00:49:40;;;;;;;17.77;7.57;;;;;;;4.23;88.82;102624.69;5111288;28;19947;-77
2021/03/23 00:52:05;;;;;;;19.20;10.00;;;;;;;4.31;88.79;102618.53;5114962;28;20039;-77
2021/03/23 00:54:31;;;;;;;18.42;9.55;;;;;;;4.32;88.85;102614.31;5114887;28;20020;-78
2021/03/23 00:56:57;;;;;;;21.08;9.50;;;;;;;4.34;88.81;102616.22;5113875;28;20023;-78
2021/03/23 00:59:22;;;;;;;22.40;11.10;;;;;;;4.41;88.68;102617.56;5095289;28;20070;-78
2021/03/23 01:01:47;;;;;;;23.05;9.60;;;;;;;4.44;88.68;102619.44;5113121;28;20098;-77
2021/03/23 01:04:12;;;;;;;23.47;10.93;;;;;;;4.49;88.72;102618.13;5113363;28;20434;-77
2021/03/23 01:06:38;;;;;;;22.40;10.40;;;;;;;4.57;88.29;102607.81;5095267;28;20643;-78
2021/03/23 01:09:03;;;;;;;23.77;11.50;;;;;;;4.62;87.77;102609.03;5113659;28;20019;-77
2021/03/23 01:11:29;;;;;;;23.75;11.65;;;;;;;4.60;87.45;102607.13;5094554;28;20265;-77
2021/03/23 01:13:54;;;;;;;25.17;11.43;;;;;;;4.83;86.57;102602.09;5080806;28;20020;-77
2021/03/23 01:16:19;;;;;;;26.63;12.13;;;;;;;4.73;86.35;102599.66;5089972;28;20099;-77
2021/03/23 01:18:44;;;;;;;27.80;12.50;;;;;;;4.76;86.79;102601.53;5112584;28;20296;-77
2021/03/23 01:21:10;;;;;;;24.10;12.53;;;;;;;4.74;86.95;102598.88;5083395;28;20046;-77
2021/03/23 01:23:35;;;;;;;28.10;12.20;;;;;;;4.72;86.83;102592.78;5092212;28;20016;-77
2021/03/23 01:26:01;;;;;;;26.07;11.63;;;;;;;4.65;86.78;102595.66;5092670;28;20353;-78
2021/03/23 01:28:26;;;;;;;31.10;13.25;;;;;;;4.63;86.94;102593.00;5092393;28;20274;-77
2021/03/23 01:30:51;;;;;;;31.97;13.37;;;;;;;4.62;87.50;102596.31;5092664;28;20095;-78
2021/03/23 01:33:17;;;;;;;25.50;12.97;;;;;;;4.68;87.58;102588.25;5092143;28;20274;-77
2021/03/23 01:35:42;;;;;;;30.35;13.02;;;;;;;4.81;87.37;102587.47;5083545;28;20023;-77
2021/03/23 01:38:08;;;;;;;26.48;12.95;;;;;;;4.83;87.45;102594.47;5077256;28;20016;-77
2021/03/23 01:40:34;;;;;;;26.75;12.77;;;;;;;4.75;87.16;102593.00;5091885;28;20396;-76
2021/03/23 01:43:03;;;;;;;28.17;12.67;;;;;;;4.72;87.30;102586.81;5073615;28;20114;-77
2021/03/23 01:45:39;;;;;;;31.57;14.20;;;;;;;4.78;87.57;102590.69;5079116;28;20031;-77
2021/03/23 01:48:14;;;;;;;32.13;13.60;;;;;;;4.78;87.41;102585.59;5112311;28;20026;-77
2021/03/23 01:50:40;;;;;;;24.73;10.77;;;;;;;4.72;87.13;102589.34;5093722;28;20027;-77
2021/03/23 01:53:12;;;;;;;30.42;13.68;;;;;;;4.77;87.69;102586.38;5112245;28;20012;-77
2021/03/23 01:55:38;;;;;;;28.03;14.00;;;;;;;4.75;87.42;102582.81;5112171;28;20025;-77
2021/03/23 01:58:05;;;;;;;29.95;13.98;;;;;;;4.72;87.73;102574.97;5112205;28;20012;-77
2021/03/23 02:00:31;;;;;;;34.53;15.30;;;;;;;4.72;87.47;102576.63;5111666;28;20027;-77
2021/03/23 02:02:57;;;;;;;30.75;13.68;;;;;;;4.69;87.40;102577.28;5112030;28;20024;-77
2021/03/23 02:05:28;;;;;;;26.60;13.15;;;;;;;4.73;87.22;102563.13;5111940;28;20023;-77
2021/03/23 02:07:56;;;;;;;35.83;14.33;;;;;;;4.71;87.15;102569.75;5112094;28;20087;-77
2021/03/23 02:10:22;;;;;;;29.67;13.87;;;;;;;4.76;86.84;102558.25;5111751;28;20112;-77
2021/03/23 02:12:50;;;;;;;27.88;14.38;;;;;;;4.67;86.94;102548.28;5093454;28;20376;-77
2021/03/23 02:15:17;;;;;;;29.83;14.83;;;;;;;4.65;86.83;102560.00;5111848;28;20104;-77
2021/03/23 02:17:43;;;;;;;33.70;15.57;;;;;;;4.62;87.08;102562.34;5111764;28;20047;-77
2021/03/23 02:20:11;;;;;;;35.47;14.88;;;;;;;4.61;87.27;102558.00;5093445;28;20636;-77
2021/03/23 02:22:42;;;;;;;31.97;14.97;;;;;;;4.55;87.31;102557.53;5111359;28;20028;-77
2021/03/23 02:25:21;;;;;;;31.07;15.30;;;;;;;4.48;87.55;102555.28;5107429;28;20067;-78
2021/03/23 02:27:47;;;;;;;32.77;16.07;;;;;;;4.54;87.56;102553.22;5091290;28;20027;-77
2021/03/23 02:30:39;;;;;;;29.00;14.05;;;;;;;4.41;87.65;102553.94;5092223;28;20053;-77
2021/03/23 02:33:06;;;;;;;33.50;15.10;;;;;;;4.35;87.83;102554.38;5091081;28;20487;-77
2021/03/23 02:35:32;;;;;;;31.87;14.87;;;;;;;4.32;87.78;102549.06;5092224;28;20415;-77
2021/03/23 02:37:58;;;;;;;28.00;15.13;;;;;;;4.30;87.86;102537.88;5073207;28;20016;-77
2021/03/23 02:40:24;;;;;;;36.43;16.67;;;;;;;4.30;87.98;102535.34;5092895;28;20034;-77
2021/03/23 02:42:49;;;;;;;35.97;16.02;;;;;;;4.28;87.81;102531.78;5090701;28;20435;-77
2021/03/23 02:45:15;;;;;;;39.67;16.70;;;;;;;4.22;88.05;102536.38;5091143;28;20023;-77
2021/03/23 02:47:41;;;;;;;35.42;16.23;;;;;;;4.26;87.67;102530.78;5108382;28;20099;-77
2021/03/23 02:50:07;;;;;;;35.50;16.67;;;;;;;4.29;88.07;102528.47;5092982;28;20016;-77
2021/03/23 02:52:33;;;;;;;35.03;16.07;;;;;;;4.17;88.28;102531.72;5110821;28;20011;-77
2021/03/23 02:54:58;;;;;;;33.90;16.58;;;;;;;4.15;88.15;102534.16;5111239;28;20604;-77
2021/03/23 02:57:23;;;;;;;39.03;15.93;;;;;;;4.10;88.13;102535.47;5111201;28;20027;-77
2021/03/23 02:59:48;;;;;;;39.47;16.93;;;;;;;4.06;88.74;102531.81;5111196;28;20639;-77
2021/03/23 03:02:14;;;;;;;43.43;17.53;;;;;;;4.08;88.81;102524.28;5092523;28;20012;-77
2021/03/23 03:04:39;;;;;;;43.37;18.20;;;;;;;4.07;89.18;102532.69;5111081;28;20273;-78
2021/03/23 03:07:05;;;;;;;37.80;17.67;;;;;;;4.05;89.39;102530.03;5111212;28;20484;-77
2021/03/23 03:09:30;;;;;;;39.20;19.13;;;;;;;4.06;89.23;102541.09;5088156;28;20016;-77
2021/03/23 03:11:55;;;;;;;34.37;17.53;;;;;;;4.03;89.56;102533.22;5073574;28;20501;-77
2021/03/23 03:14:21;;;;;;;42.53;19.42;;;;;;;4.00;89.38;102533.88;5092829;28;20093;-77
2021/03/23 03:16:47;;;;;;;40.50;19.77;;;;;;;3.97;89.57;102540.38;5111059;28;20034;-77
2021/03/23 03:19:13;;;;;;;40.17;20.33;;;;;;;3.93;89.49;102535.84;5110949;28;20375;-77
2021/03/23 03:21:39;;;;;;;37.20;18.93;;;;;;;3.93;89.29;102531.66;5110652;28;20030;-77
2021/03/23 03:24:05;;;;;;;37.75;20.02;;;;;;;3.87;88.80;102535.34;5095264;28;20369;-77
2021/03/23 03:26:31;;;;;;;38.43;20.17;;;;;;;3.78;89.09;102539.72;5090608;28;20062;-77
2021/03/23 03:28:56;;;;;;;48.00;21.58;;;;;;;3.72;89.04;102541.00;5090574;28;20476;-77
2021/03/23 03:31:24;;;;;;;39.72;20.10;;;;;;;3.69;89.09;102545.88;5090348;28;20440;-77
2021/03/23 03:33:51;;;;;;;45.37;21.63;;;;;;;3.66;89.06;102540.53;5090328;28;20023;-77
2021/03/23 03:36:18;;;;;;;43.50;20.70;;;;;;;3.70;89.36;102536.59;5090487;28;20031;-77
2021/03/23 03:38:43;;;;;;;40.67;20.50;;;;;;;3.63;89.15;102541.97;5090499;28;20024;-77
2021/03/23 03:41:08;;;;;;;45.33;20.70;;;;;;;3.56;89.09;102538.03;5090286;28;20077;-77
2021/03/23 03:43:34;;;;;;;47.58;22.65;;;;;;;3.49;89.23;102538.31;5095444;28;20093;-78
2021/03/23 03:46:02;;;;;;;44.50;22.05;;;;;;;3.43;89.18;102537.84;5084149;28;20051;-77
2021/03/23 03:48:27;;;;;;;47.03;23.60;;;;;;;3.42;89.67;102530.97;5100392;28;20019;-77
2021/03/23 03:50:53;;;;;;;57.13;24.17;;;;;;;3.41;90.08;102534.28;5095935;28;20012;-77
2021/03/23 03:53:20;;;;;;;52.80;24.48;;;;;;;3.43;90.37;102531.09;5096249;28;20100;-77
2021/03/23 03:55:45;;;;;;;;;;;;;;;3.53;90.12;102537.78;5114983;28;20369;-77
2021/03/23 03:58:12;;;;;;;48.97;23.37;;;;;;;3.58;90.14;102539.06;5114232;28;19907;-77
2021/03/23 04:00:37;;;;;;;53.77;26.27;;;;;;;3.58;90.10;102530.56;5095979;28;20069;-77
2021/03/23 04:03:06;;;;;;;50.97;25.88;;;;;;;3.64;90.89;102531.91;5114088;28;20414;-77
2021/03/23 04:05:38;;;;;;;54.87;26.20;;;;;;;3.65;90.79;102531.16;5096124;28;20027;-77
2021/03/23 04:08:05;;;;;;;56.13;27.37;;;;;;;3.69;91.21;102533.16;5101186;28;20016;-77
2021/03/23 04:10:31;;;;;;;56.37;27.57;;;;;;;3.73;91.19;102535.16;5094826;28;20617;-77
2021/03/23 04:12:56;;;;;;;57.00;26.63;;;;;;;3.83;91.58;102533.34;5095743;28;20011;-77
2021/03/23 04:15:26;;;;;;;62.33;28.40;;;;;;;3.90;91.74;102540.66;5095968;28;20027;-77
2021/03/23 04:17:52;;;;;;;57.40;27.90;;;;;;;3.98;91.95;102537.97;5114144;28;20047;-78
2021/03/23 04:20:18;;;;;;;59.47;28.70;;;;;;;4.04;92.25;102525.72;5096164;28;20496;-78
2021/03/23 04:22:44;;;;;;;59.53;30.10;;;;;;;4.27;92.14;102529.13;5113815;28;20354;-77
2021/03/23 04:25:11;;;;;;;56.25;28.83;;;;;;;4.42;92.23;102526.84;5095739;28;20036;-77
2021/03/23 04:27:37;;;;;;;60.10;28.93;;;;;;;4.48;91.37;102520.56;5113815;28;20023;-77
2021/03/23 04:30:04;;;;;;;63.03;29.60;;;;;;;4.51;90.87;102519.91;5100967;28;20481;-77
2021/03/23 04:32:30;;;;;;;63.93;28.70;;;;;;;4.58;90.90;102522.16;5102562;28;20279;-77
2021/03/23 04:34:55;;;;;;;57.50;28.53;;;;;;;4.58;91.22;102523.03;5113691;28;20603;-77
2021/03/23 04:37:20;;;;;;;62.87;29.73;;;;;;;4.59;91.11;102518.84;5113834;28;20261;-77
2021/03/23 04:39:46;;;;;;;71.23;29.07;;;;;;;4.70;90.99;102523.06;5113621;28;20379;-77
2021/03/23 04:42:11;;;;;;;57.72;28.80;;;;;;;4.66;90.81;102521.06;5110151;28;20023;-77
2021/03/23 04:44:37;;;;;;;65.10;30.63;;;;;;;4.71;91.51;102514.66;5113606;28;20031;-77
2021/03/23 04:47:02;;;;;;;59.03;29.65;;;;;;;4.71;91.20;102517.19;5113510;28;20716;-77
2021/03/23 04:49:27;;;;;;;62.00;29.88;;;;;;;4.76;90.96;102517.53;5095269;28;20019;-77
2021/03/23 04:51:53;;;;;;;62.63;28.80;;;;;;;4.80;90.59;102530.59;5112990;28;20030;-77
2021/03/23 04:54:18;;;;;;;58.87;28.77;;;;;;;4.82;90.43;102523.94;5112800;28;20079;-77
2021/03/23 04:56:44;;;;;;;62.70;29.57;;;;;;;4.83;90.49;102523.16;5113195;28;20469;-77
2021/03/23 04:59:10;;;;;;;61.90;28.97;;;;;;;4.86;90.41;102525.94;5099696;28;20262;-77
2021/03/23 05:01:39;;;;;;;65.03;30.88;;;;;;;4.90;90.44;102524.53;5074370;28;20039;-78
2021/03/23 05:04:08;;;;;;;70.77;30.67;;;;;;;4.85;90.24;102529.25;5112313;28;20034;-77
2021/03/23 05:06:33;;;;;;;64.30;29.47;;;;;;;4.78;90.68;102526.16;5091606;28;20043;-77
2021/03/23 05:08:59;;;;;;;68.05;31.13;;;;;;;4.84;91.02;102532.59;5092755;28;20473;-78
2021/03/23 05:11:28;;;;;;;77.13;31.23;;;;;;;4.90;91.00;102539.81;5104408;28;20055;-77
2021/03/23 05:13:54;;;;;;;68.20;31.83;;;;;;;4.86;91.02;102537.78;5112704;28;20031;-77
2021/03/23 05:16:19;;;;;;;65.72;32.25;;;;;;;4.82;91.22;102543.44;5112962;28;20019;-77
2021/03/23 05:18:45;;;;;;;75.95;31.95;;;;;;;4.83;91.56;102538.44;5094490;28;20429;-77
2021/03/23 05:21:11;;;;;;;87.38;33.15;;;;;;;4.88;91.80;102544.78;5086207;28;20630;-77
2021/03/23 05:23:37;;;;;;;75.85;32.20;;;;;;;4.90;91.65;102543.25;5092514;28;20077;-78
2021/03/23 05:26:03;;;;;;;76.53;32.80;;;;;;;5.00;91.33;102550.78;5112807;28;20027;-77
2021/03/23 05:28:29;;;;;;;89.73;35.67;;;;;;;4.98;91.75;102552.31;5112530;28;20031;-77
2021/03/23 05:30:56;;;;;;;84.40;33.05;;;;;;;4.98;91.70;102547.22;5109536;28;20083;-77
2021/03/23 05:33:21;;;;;;;77.77;34.33;;;;;;;4.96;91.72;102558.09;5112048;28;20008;-77
2021/03/23 05:35:50;;;;;;;81.63;34.55;;;;;;;4.92;92.23;102549.34;5074061;28;20594;-77
2021/03/23 05:38:16;;;;;;;91.63;36.53;;;;;;;4.99;91.94;102559.19;5074092;28;20350;-77
2021/03/23 05:40:48;;;;;;;85.05;34.78;;;;;;;4.96;92.13;102556.41;5091765;28;20068;-77
2021/03/23 05:43:32;;;;;;;89.83;36.20;;;;;;;4.96;92.56;102553.88;5115246;22;20063;-77
2021/03/23 05:46:12;;;;;;;87.00;36.50;;;;;;;5.00;92.53;102549.88;5107568;28;20067;-76
2021/03/23 05:48:54;;;;;;;96.07;38.10;;;;;;;5.05;92.63;102547.69;5107209;28;20011;-76
2021/03/23 05:51:26;;;;;;;94.57;36.57;;;;;;;5.05;92.78;102550.22;5106775;28;20016;-76
2021/03/23 05:53:59;;;;;;;94.40;37.60;;;;;;;5.07;92.96;102556.31;5074940;28;20504;-76
2021/03/23 05:56:28;;;;;;;97.43;38.57;;;;;;;5.09;92.94;102554.75;5074875;28;20020;-76
2021/03/23 05:59:02;;;;;;;99.33;39.20;;;;;;;5.09;93.40;102549.66;5074583;28;20473;-77
2021/03/23 06:01:32;;;;;;;89.83;37.73;;;;;;;5.24;93.27;102553.34;5074492;28;20020;-76
2021/03/23 06:04:19;;;;;;;98.00;41.07;;;;;;;5.19;93.15;102547.00;5092519;28;20015;-77
2021/03/23 06:06:51;;;;;;;95.33;36.87;;;;;;;5.27;93.35;102545.91;5091187;28;20059;-77
2021/03/23 06:09:17;;;;;;;101.87;39.00;;;;;;;5.32;93.00;102545.47;5092811;28;20027;-76
2021/03/23 06:11:43;;;;;;;106.20;39.50;;;;;;;5.32;92.68;102547.13;5092346;28;20465;-77
2021/03/23 06:14:30;;;;;;;110.30;40.17;;;;;;;5.45;92.93;102557.41;5092167;28;20019;-76
2021/03/23 06:17:23;;;;;;;96.35;39.53;;;;;;;5.43;92.54;102553.88;5090669;28;20095;-76
2021/03/23 06:20:22;;;;;;;93.90;36.97;;;;;;;5.41;92.70;102555.44;5092421;28;20020;-77
2021/03/23 06:23:15;;;;;;;91.27;39.27;;;;;;;5.38;92.87;102554.31;5073755;28;20028;-76
2021/03/23 06:25:55;;;;;;;98.17;38.37;;;;;;;5.42;93.07;102553.78;5073177;28;20031;-77
2021/03/23 06:28:54;;;;;;;99.47;40.23;;;;;;;5.46;92.99;102561.75;5090784;28;20020;-76
2021/03/23 06:31:35;;;;;;;92.83;39.87;;;;;;;5.49;93.37;102564.50;5089266;28;20024;-76
2021/03/23 06:34:01;;;;;;;103.40;38.57;;;;;;;5.49;92.76;102559.41;5089218;28;20016;-77
2021/03/23 06:36:30;;;;;;;100.40;40.05;;;;;;;5.70;92.83;102562.59;5091739;28;20481;-76
2021/03/23 06:38:55;;;;;;;99.90;42.23;;;;;;;5.66;92.66;102557.19;5091993;28;20377;-77
2021/03/23 06:41:27;;;;;;;91.53;40.80;;;;;;;5.74;92.65;102561.16;5091617;28;20016;-76
2021/03/23 06:44:19;;;;;;;93.57;40.73;;;;;;;5.78;92.40;102564.03;5091455;28;20361;-76
2021/03/23 06:46:47;;;;;;;98.53;39.47;;;;;;;5.77;92.48;102562.25;5091646;28;20055;-76
2021/03/23 06:49:15;;;;;;;100.00;39.70;;;;;;;5.80;92.15;102566.69;5091701;28;20035;-75
2021/03/23 06:51:56;;;;;;;106.93;39.43;;;;;;;5.90;92.01;102559.84;5091016;28;20024;-77
2021/03/23 06:54:25;;;;;;;87.03;39.40;;;;;;;5.89;91.96;102567.34;5072096;28;20366;-76
2021/03/23 06:56:59;;;;;;;96.60;39.27;;;;;;;5.96;91.69;102569.59;5091649;28;20024;-77
2021/03/23 06:59:25;;;;;;;95.57;39.20;;;;;;;6.00;91.64;102570.69;5090177;28;20474;-76
2021/03/23 07:01:52;;;;;;;94.78;39.75;;;;;;;6.03;91.64;102573.44;5072986;28;20135;-76
2021/03/23 07:04:34;;;;;;;91.50;40.03;;;;;;;6.01;92.10;102570.78;5091239;28;20369;-76
2021/03/23 07:07:13;;;;;;;87.97;38.60;;;;;;;6.08;91.54;102577.19;5072423;28;20027;-76
2021/03/23 07:09:55;;;;;;;95.43;40.20;;;;;;;6.09;91.82;102569.63;5071537;28;20373;-78
2021/03/23 07:12:40;;;;;;;86.83;38.13;;;;;;;6.21;91.45;102570.50;5091065;28;20023;-78
2021/03/23 07:15:19;;;;;;;85.80;37.33;;;;;;;6.27;90.87;102572.59;5072918;28;20373;-77
2021/03/23 07:17:48;;;;;;;82.33;39.00;;;;;;;6.44;90.49;102573.72;5093359;28;20063;-76
2021/03/23 07:20:28;;;;;;;84.13;37.70;;;;;;;6.38;90.29;102576.75;5095049;28;20024;-76
2021/03/23 07:22:55;;;;;;;93.93;39.67;;;;;;;6.52;90.32;102565.81;5075947;28;20030;-75
2021/03/23 07:25:37;;;;;;;78.23;36.63;;;;;;;6.61;89.62;102565.56;5094018;28;20024;-76
2021/03/23 07:28:21;;;;;;;79.97;35.43;;;;;;;6.60;89.20;102573.09;5093951;28;20404;-75
2021/03/23 07:31:06;;;;;;;83.30;36.80;;;;;;;6.61;89.55;102577.44;5093905;28;20366;-75
2021/03/23 07:33:58;;;;;;;80.03;34.73;;;;;;;6.63;89.88;102576.75;5075615;28;20020;-75
2021/03/23 07:36:29;;;;;;;83.83;36.33;;;;;;;6.64;89.57;102585.28;5093798;28;20024;-75
2021/03/23 07:39:07;;;;;;;85.17;36.33;;;;;;;6.72;88.99;102586.69;5093342;28;20020;-75
2021/03/23 07:41:41;;;;;;;74.20;35.03;;;;;;;6.67;89.02;102594.03;5075105;28;20028;-75
2021/03/23 07:44:31;;;;;;;84.13;36.17;;;;;;;6.83;88.46;102593.41;5075275;28;20027;-76
2021/03/23 07:46:59;;;;;;;79.40;36.07;;;;;;;6.75;88.47;102592.88;5093447;28;20036;-75
2021/03/23 07:49:34;;;;;;;79.53;35.67;;;;;;;6.69;88.63;102600.13;5093452;28;20524;-75
2021/03/23 07:52:26;;;;;;;79.27;36.87;;;;;;;6.79;88.60;102596.53;5071486;28;20028;-76
2021/03/23 07:54:58;;;;;;;88.17;35.53;;;;;;;6.78;88.34;102605.84;5092472;28;20093;-76
2021/03/23 07:57:32;;;;;;;87.00;36.83;;;;;;;6.80;88.70;102606.84;5075015;28;20020;-76
2021/03/23 08:00:22;;;;;;;81.20;34.63;;;;;;;6.90;88.10;102603.25;5091682;28;20027;-75
2021/03/23 08:03:09;;;;;;;77.40;35.30;;;;;;;7.06;87.68;102602.59;5092711;28;20047;-76
2021/03/23 08:05:45;;;;;;;76.20;33.93;;;;;;;7.16;86.99;102603.31;5074780;28;20602;-75
2021/03/23 08:08:16;;;;;;;80.80;35.47;;;;;;;7.20;86.75;102606.94;5074844;28;20023;-76
2021/03/23 08:11:08;;;;;;;77.53;35.33;;;;;;;7.35;87.23;102612.16;5092617;28;20028;-76
2021/03/23 08:13:52;;;;;;;71.30;33.43;;;;;;;7.49;86.34;102612.28;5074716;28;20121;-76
2021/03/23 08:16:45;;;;;;;75.53;35.20;;;;;;;7.63;86.05;102610.59;5093037;28;20035;-76
2021/03/23 08:19:13;;;;;;;76.40;34.70;;;;;;;7.69;84.74;102610.09;5092657;28;20090;-75
2021/03/23 08:22:07;;;;;;;73.57;33.20;;;;;;;7.80;84.62;102607.44;5074644;28;20024;-76
2021/03/23 08:25:17;;;;;;;75.37;34.90;;;;;;;7.87;83.88;102608.72;5092931;28;20092;-76
2021/03/23 08:27:58;;;;;;;76.70;36.43;;;;;;;7.95;82.99;102612.63;4990928;28;20080;-76
2021/03/23 08:31:08;;;;;;;71.57;34.50;;;;;;;7.98;83.14;102615.38;5062610;28;20032;-75
2021/03/23 08:34:01;;;;;;;77.20;33.73;;;;;;;7.95;82.53;102612.63;5087369;28;20043;-75
2021/03/23 08:36:51;;;;;;;82.70;34.67;;;;;;;8.07;83.42;102605.69;5074191;28;20097;-75
2021/03/23 08:39:50;;;;;;;75.90;34.87;;;;;;;8.12;83.56;102613.66;5092295;28;20489;-76
2021/03/23 08:42:19;;;;;;;74.07;34.70;;;;;;;8.22;83.28;102610.91;5091505;28;20020;-75
2021/03/23 08:44:57;;;;;;;68.53;33.10;;;;;;;8.33;81.61;102601.31;5092005;28;20028;-76
2021/03/23 08:47:31;;;;;;;69.00;32.50;;;;;;;8.21;81.92;102615.94;5091953;28;20031;-76
2021/03/23 08:50:21;;;;;;;68.73;33.60;;;;;;;8.40;81.72;102612.03;5073781;28;20032;-75
2021/03/23 08:52:49;;;;;;;66.30;32.43;;;;;;;8.42;81.29;102612.13;5076882;28;20097;-76
2021/03/23 08:55:24;;;;;;;67.80;34.47;;;;;;;8.44;81.43;102605.41;5091863;28;20394;-74
2021/03/23 08:57:52;;;;;;;62.63;32.83;;;;;;;8.47;80.76;102608.19;5073518;28;20032;-76
2021/03/23 09:00:36;;;;;;;70.20;32.63;;;;;;;8.59;79.96;102605.47;5091652;28;20065;-76
2021/03/23 09:03:37;;;;;;;63.60;30.80;;;;;;;8.45;80.19;102607.19;5091462;28;20016;-76
2021/03/23 09:06:03;;;;;;;63.57;32.53;;;;;;;8.66;79.96;102610.16;5073351;28;20052;-75
2021/03/23 09:08:35;;;;;;;68.22;32.20;;;;;;;8.64;80.05;102606.63;5091386;28;20035;-75
2021/03/23 09:11:12;;;;;;;74.03;33.33;;;;;;;8.89;80.63;102608.97;5091230;28;20030;-75
2021/03/23 09:13:37;;;;;;;62.83;31.70;;;;;;;9.19;78.15;102600.50;5091506;28;20020;-75
2021/03/23 09:16:12;;;;;;;58.07;29.83;;;;;;;9.40;78.04;102607.63;5073269;28;20031;-75
2021/03/23 09:19:01;;;;;;;61.40;33.07;;;;;;;9.59;78.02;102603.63;5073744;28;20397;-75
2021/03/23 09:21:52;;;;;;;61.57;31.70;;;;;;;9.75;77.00;102614.72;5089619;28;20028;-75
2021/03/23 09:24:36;;;;;;;61.13;29.67;;;;;;;9.61;76.15;102612.28;5072513;28;20031;-77
2021/03/23 09:27:34;;;;;;;59.47;30.73;;;;;;;9.64;76.28;102611.56;5072854;28;20027;-77
2021/03/23 09:30:00;;;;;;;63.37;30.17;;;;;;;10.18;75.65;102617.97;5071212;28;20568;-77
2021/03/23 09:32:28;;;;;;;64.68;29.52;;;;;;;9.88;73.97;102618.06;5073025;28;20103;-77
2021/03/23 09:35:24;;;;;;;57.90;28.90;;;;;;;10.80;74.45;102607.56;5091739;28;20038;-77
2021/03/23 09:37:55;;;;;;;63.53;31.77;;;;;;;11.84;71.37;102610.97;5089273;28;20032;-77
2021/03/23 09:40:20;;;;;;;56.60;29.13;;;;;;;12.25;67.26;102610.28;5091589;28;20023;-76
2021/03/23 09:42:51;;;;;;;50.78;27.17;;;;;;;12.71;67.21;102604.59;5091215;28;20035;-76
2021/03/23 09:45:34;;;;;;;56.38;28.75;;;;;;;14.49;63.29;102605.69;5091871;28;20399;-77
2021/03/23 09:48:04;;;;;;;49.65;26.65;;;;;;;15.48;58.94;102609.91;5073862;28;20397;-78
2021/03/23 09:50:54;;;;;;;44.38;24.77;;;;;;;15.93;57.07;102609.59;5073137;28;20027;-77
2021/03/23 09:53:28;;;;;;;45.33;26.30;;;;;;;15.32;53.74;102607.69;5091343;28;20125;-76
2021/03/23 09:56:01;;;;;;;45.65;27.30;;;;;;;14.13;57.09;102619.00;5090735;28;20053;-77
2021/03/23 09:58:27;;;;;;;46.15;26.00;;;;;;;12.92;60.06;102620.97;5091080;28;20028;-77
2021/03/23 10:01:08;;;;;;;49.83;27.02;;;;;;;11.80;63.36;102619.38;5072551;28;20028;-74
2021/03/23 10:03:36;;;;;;;48.58;26.50;;;;;;;11.54;66.34;102612.94;5089169;28;20035;-76
2021/03/23 10:06:15;;;;;;;49.75;27.10;;;;;;;11.25;67.36;102614.09;5072633;28;20393;-77
2021/03/23 10:08:52;;;;;;;50.10;27.23;;;;;;;10.96;68.80;102612.66;5072160;28;20020;-77
2021/03/23 10:11:22;;;;;;;51.72;27.73;;;;;;;10.86;69.08;102611.31;5090638;28;20047;-76
2021/03/23 10:13:57;;;;;;;53.97;28.92;;;;;;;10.54;69.85;102616.50;5072643;28;20028;-76
2021/03/23 10:16:25;;;;;;;49.53;28.95;;;;;;;10.54;71.24;102619.94;5090737;28;20028;-77
2021/03/23 10:18:51;;;;;;;52.25;27.77;;;;;;;10.55;71.22;102615.69;5072744;28;20042;-77
2021/03/23 10:21:17;;;;;;;50.25;26.83;;;;;;;10.75;70.69;102609.00;5090544;28;20024;-76
2021/03/23 10:23:51;;;;;;;;;;;;;;;10.82;70.46;102598.22;5091296;28;20108;-77
2021/03/23 10:26:16;;;;;;;49.88;26.20;;;;;;;10.86;70.92;102602.72;5074671;28;20309;-77
2021/03/23 10:28:50;;;;;;;54.15;27.17;;;;;;;10.92;70.07;102605.59;5093656;28;20028;-76
2021/03/23 10:31:32;;;;;;;49.67;27.58;;;;;;;10.87;70.43;102609.63;5073451;28;20460;-75
2021/03/23 10:34:06;;;;;;;48.65;25.67;;;;;;;10.78;70.75;102601.47;5072394;28;20034;-76
2021/03/23 10:36:53;;;;;;;51.38;27.05;;;;;;;10.51;71.95;102618.91;5090580;28;20032;-76
2021/03/23 10:39:43;;;;;;;52.93;25.80;;;;;;;10.48;72.82;102609.34;5088594;28;20470;-75
2021/03/23 10:42:22;;;;;;;50.83;25.33;;;;;;;10.62;71.82;102614.31;5088027;28;20059;-75
2021/03/23 10:44:47;;;;;;;43.70;24.08;;;;;;;10.81;71.90;102609.31;5088800;28;20485;-76
2021/03/23 10:47:35;;;;;;;46.33;25.90;;;;;;;11.04;71.29;102613.91;5090631;28;20024;-75
2021/03/23 10:50:20;;;;;;;47.95;24.73;;;;;;;10.93;71.12;102614.19;5090505;28;20442;-76
2021/03/23 10:52:45;;;;;;;47.70;26.27;;;;;;;10.73;71.91;102615.72;5087607;28;20031;-75
2021/03/23 10:55:22;;;;;;;46.75;26.20;;;;;;;10.57;71.15;102620.09;5071393;28;20432;-76
2021/03/23 10:57:48;;;;;;;49.85;26.52;;;;;;;10.53;71.40;102625.88;5066800;28;20032;-75
2021/03/23 11:00:28;;;;;;;57.05;28.17;;;;;;;10.51;72.56;102622.34;5085609;28;20405;-76
2021/03/23 11:03:18;;;;;;;51.58;26.05;;;;;;;10.54;72.49;102622.50;5063618;28;20024;-76
2021/03/23 11:05:49;;;;;;;51.88;27.88;;;;;;;10.56;72.63;102632.88;5086509;28;20485;-76
2021/03/23 11:08:15;;;;;;;51.75;25.33;;;;;;;10.03;72.10;102627.41;5072220;28;20024;-74
2021/03/23 11:10:42;;;;;;;52.90;27.55;;;;;;;10.01;73.88;102634.13;5071774;28;20489;-76
2021/03/23 11:13:10;;;;;;;49.88;26.85;;;;;;;9.91;73.56;102635.31;5072078;28;20111;-74
2021/03/23 11:15:38;;;;;;;54.60;28.08;;;;;;;10.24;74.21;102638.88;5090514;28;20055;-76
2021/03/23 11:18:07;;;;;;;53.63;28.13;;;;;;;10.32;73.99;102635.03;5090201;28;20039;-76
2021/03/23 11:20:41;;;;;;;54.10;29.52;;;;;;;10.25;73.04;102625.22;5089806;28;20034;-76
2021/03/23 11:23:34;;;;;;;52.67;28.50;;;;;;;9.98;74.53;102634.84;5088125;28;20063;-76
2021/03/23 11:26:00;;;;;;;52.72;28.23;;;;;;;9.93;74.03;102628.59;5090316;28;20028;-75
2021/03/23 11:28:26;;;;;;;56.05;30.75;;;;;;;9.96;73.90;102627.06;5071691;28;20035;-76
2021/03/23 11:30:51;;;;;;;55.63;28.60;;;;;;;9.94;74.50;102632.91;5088802;28;20396;-75
2021/03/23 11:33:17;;;;;;;60.38;30.17;;;;;;;9.92;75.06;102625.13;5087824;28;20024;-76
2021/03/23 11:35:47;;;;;;;62.30;32.05;;;;;;;10.10;74.97;102624.38;5070415;28;20020;-75
2021/03/23 11:38:14;;;;;;;57.30;28.25;;;;;;;10.14;74.25;102626.31;5085564;28;20034;-76